createdAt,value
2015-12-12T00:00:07.706Z,74072
2015-12-12T00:00:20.066Z,74070
2015-12-12T00:00:32.425Z,74074
2015-12-12T00:00:44.787Z,74072
2015-12-12T00:00:57.178Z,74069
2015-12-12T00:01:09.537Z,74069
2015-12-12T00:01:21.897Z,74069
2015-12-12T00:01:34.240Z,74076
2015-12-12T00:01:46.602Z,74078
2015-12-12T00:01:58.961Z,74075
2015-12-12T00:02:11.321Z,74078
2015-12-12T00:02:23.680Z,74083
2015-12-12T00:02:36.039Z,74082
2015-12-12T00:02:48.417Z,74081
2015-12-12T00:03:00.777Z,74074
2015-12-12T00:03:13.152Z,74067
2015-12-12T00:03:25.511Z,74067
2015-12-12T00:03:37.902Z,74064
2015-12-12T00:03:50.295Z,74067
2015-12-12T00:04:02.702Z,74060
2015-12-12T00:04:15.092Z,74061
2015-12-12T00:04:27.498Z,74058
2015-12-12T00:04:39.873Z,74059
2015-12-12T00:04:52.267Z,74061
2015-12-12T00:05:04.626Z,74061
2015-12-12T00:05:16.986Z,74065
2015-12-12T00:05:29.345Z,74060
2015-12-12T00:05:41.689Z,74066
2015-12-12T00:05:54.083Z,74062
2015-12-12T00:06:06.442Z,74066
2015-12-12T00:06:18.801Z,74068
2015-12-12T00:06:31.145Z,74070
2015-12-12T00:06:43.520Z,74080
2015-12-12T00:06:55.882Z,74080
2015-12-12T00:07:08.242Z,74066
2015-12-12T00:07:20.601Z,74070
2015-12-12T00:07:32.945Z,74064
2015-12-12T00:07:45.320Z,74077
2015-12-12T00:07:57.698Z,74074
2015-12-12T00:08:10.089Z,74077
2015-12-12T00:08:22.464Z,74072
2015-12-12T00:08:34.854Z,74074
2015-12-12T00:08:47.245Z,74076
2015-12-12T00:08:59.653Z,74075
2015-12-12T00:09:12.044Z,74079
2015-12-12T00:09:24.434Z,74080
2015-12-12T00:09:36.825Z,74081
2015-12-12T00:09:49.216Z,74082
2015-12-12T00:10:00.890Z,74086
2015-12-12T00:10:13.234Z,74084
2015-12-12T00:10:25.594Z,74083
2015-12-12T00:10:37.953Z,74081
2015-12-12T00:10:50.312Z,74088
2015-12-12T00:11:02.674Z,74080
2015-12-12T00:11:15.033Z,74068
2015-12-12T00:11:27.392Z,74078
2015-12-12T00:11:39.752Z,74067
2015-12-12T00:11:52.111Z,74063
2015-12-12T00:12:04.490Z,74078
2015-12-12T00:12:16.850Z,74082
2015-12-12T00:12:29.209Z,74078
2015-12-12T00:12:41.553Z,74086
2015-12-12T00:12:53.928Z,74088
2015-12-12T00:13:06.290Z,74083
2015-12-12T00:13:18.665Z,74080
2015-12-12T00:13:31.024Z,74076
2015-12-12T00:13:43.415Z,74073
2015-12-12T00:13:55.806Z,74074
2015-12-12T00:14:08.198Z,74070
2015-12-12T00:14:20.589Z,74075
2015-12-12T00:14:32.995Z,74076
2015-12-12T00:14:45.401Z,74072
2015-12-12T00:14:57.792Z,74070
2015-12-12T00:15:10.279Z,74076
2015-12-12T00:15:22.670Z,74072
2015-12-12T00:15:35.029Z,74086
2015-12-12T00:15:47.389Z,74077
2015-12-12T00:15:59.748Z,74087
2015-12-12T00:16:12.110Z,74088
2015-12-12T00:16:24.469Z,74080
2015-12-12T00:16:36.828Z,74070
2015-12-12T00:16:49.172Z,74065
2015-12-12T00:17:01.531Z,74054
2015-12-12T00:17:13.894Z,74051
2015-12-12T00:17:26.253Z,74050
2015-12-12T00:17:38.613Z,74051
2015-12-12T00:17:50.972Z,74051
2015-12-12T00:18:03.347Z,74046
2015-12-12T00:18:15.725Z,74050
2015-12-12T00:18:28.100Z,74062
2015-12-12T00:18:40.475Z,74066
2015-12-12T00:18:52.881Z,74063
2015-12-12T00:19:05.272Z,74063
2015-12-12T00:19:17.649Z,74060
2015-12-12T00:19:30.039Z,74060
2015-12-12T00:19:42.430Z,74063
2015-12-12T00:19:54.821Z,74060
2015-12-12T00:20:06.493Z,74065
2015-12-12T00:20:18.886Z,74064
2015-12-12T00:20:31.230Z,74061
2015-12-12T00:20:43.605Z,74053
2015-12-12T00:20:55.964Z,74059
2015-12-12T00:21:08.324Z,74058
2015-12-12T00:21:20.686Z,74055
2015-12-12T00:21:32.342Z,74062
2015-12-12T00:21:44.686Z,74062
2015-12-12T00:21:57.045Z,74061
2015-12-12T00:22:09.420Z,74058
2015-12-12T00:22:21.783Z,74061
2015-12-12T00:22:34.142Z,74060
2015-12-12T00:22:46.502Z,74057
2015-12-12T00:22:58.861Z,74057
2015-12-12T00:23:11.236Z,74052
2015-12-12T00:23:23.614Z,74064
2015-12-12T00:23:35.989Z,74058
2015-12-12T00:23:48.348Z,74056
2015-12-12T00:24:00.755Z,74055
2015-12-12T00:24:13.130Z,74054
2015-12-12T00:24:25.538Z,74065
2015-12-12T00:24:37.913Z,74066
2015-12-12T00:24:50.288Z,74064
2015-12-12T00:25:02.647Z,74068
2015-12-12T00:25:14.991Z,74068
2015-12-12T00:25:27.354Z,74065
2015-12-12T00:25:39.698Z,74068
2015-12-12T00:25:52.057Z,74066
2015-12-12T00:26:04.432Z,74072
2015-12-12T00:26:16.776Z,74068
2015-12-12T00:26:29.138Z,74079
2015-12-12T00:26:41.497Z,74076
2015-12-12T00:26:53.856Z,74063
2015-12-12T00:27:06.059Z,74078
2015-12-12T00:27:18.419Z,74063
2015-12-12T00:27:30.812Z,74066
2015-12-12T00:27:43.187Z,74060
2015-12-12T00:27:54.844Z,74063
2015-12-12T00:28:07.219Z,74067
2015-12-12T00:28:19.594Z,74062
2015-12-12T00:28:31.972Z,74063
2015-12-12T00:28:44.347Z,74062
2015-12-12T00:28:56.737Z,74063
2015-12-12T00:29:09.097Z,74060
2015-12-12T00:29:21.440Z,74055
2015-12-12T00:29:33.817Z,74057
2015-12-12T00:29:46.161Z,74052
2015-12-12T00:29:58.536Z,74060
2015-12-12T00:30:10.897Z,74057
2015-12-12T00:30:23.257Z,74063
2015-12-12T00:30:34.916Z,74063
2015-12-12T00:30:47.291Z,74052
2015-12-12T00:30:59.666Z,74052
2015-12-12T00:31:11.307Z,74052
2015-12-12T00:31:22.947Z,74048
2015-12-12T00:31:35.310Z,74044
2015-12-12T00:31:47.669Z,74051
2015-12-12T00:32:00.044Z,74054
2015-12-12T00:32:12.419Z,74047
2015-12-12T00:32:24.091Z,74048
2015-12-12T00:32:36.469Z,74051
2015-12-12T00:32:48.860Z,74050
2015-12-12T00:33:01.250Z,74045
2015-12-12T00:33:12.922Z,74048
2015-12-12T00:33:25.313Z,74050
2015-12-12T00:33:37.705Z,74052
2015-12-12T00:33:50.080Z,74053
2015-12-12T00:34:02.487Z,74048
2015-12-12T00:34:14.893Z,74055
2015-12-12T00:34:27.252Z,74051
2015-12-12T00:34:39.599Z,74066
2015-12-12T00:34:51.958Z,74065
2015-12-12T00:35:04.318Z,74066
2015-12-12T00:35:16.677Z,74057
2015-12-12T00:35:29.036Z,74060
2015-12-12T00:35:41.398Z,74062
2015-12-12T00:35:53.757Z,74063
2015-12-12T00:36:06.132Z,74058
2015-12-12T00:36:18.507Z,74062
2015-12-12T00:36:30.855Z,74061
2015-12-12T00:36:43.214Z,74067
2015-12-12T00:36:55.574Z,74070
2015-12-12T00:37:07.949Z,74058
2015-12-12T00:37:20.324Z,74061
2015-12-12T00:37:32.686Z,74058
2015-12-12T00:37:45.061Z,74057
2015-12-12T00:37:57.452Z,74068
2015-12-12T00:38:09.842Z,74067
2015-12-12T00:38:22.202Z,74067
2015-12-12T00:38:34.579Z,74061
2015-12-12T00:38:46.969Z,74056
2015-12-12T00:38:59.344Z,74052
2015-12-12T00:39:11.704Z,74061
2015-12-12T00:39:24.110Z,74058
2015-12-12T00:39:36.472Z,74053
2015-12-12T00:39:48.988Z,74046
2015-12-12T00:40:01.191Z,74051
2015-12-12T00:40:13.550Z,74050
2015-12-12T00:40:25.910Z,74050
2015-12-12T00:40:38.287Z,74056
2015-12-12T00:40:50.631Z,74052
2015-12-12T00:41:02.287Z,74049
2015-12-12T00:41:14.646Z,74051
2015-12-12T00:41:27.021Z,74047
2015-12-12T00:41:39.368Z,74059
2015-12-12T00:41:51.009Z,74060
2015-12-12T00:42:03.368Z,74053
2015-12-12T00:42:15.743Z,74060
2015-12-12T00:42:28.102Z,74058
2015-12-12T00:42:40.480Z,74051
2015-12-12T00:42:52.840Z,74060
2015-12-12T00:43:05.230Z,74053
2015-12-12T00:43:17.605Z,74062
2015-12-12T00:43:29.996Z,74064
2015-12-12T00:43:42.389Z,74065
2015-12-12T00:43:54.764Z,74060
2015-12-12T00:44:07.154Z,74059
2015-12-12T00:44:19.545Z,74061
2015-12-12T00:44:31.920Z,74060
2015-12-12T00:44:44.282Z,74059
2015-12-12T00:44:56.642Z,74067
2015-12-12T00:45:09.001Z,74052
2015-12-12T00:45:21.360Z,74058
2015-12-12T00:45:33.704Z,74049
2015-12-12T00:45:46.066Z,74055
2015-12-12T00:45:58.426Z,74058
2015-12-12T00:46:10.785Z,74061
2015-12-12T00:46:23.160Z,74065
2015-12-12T00:46:35.504Z,74062
2015-12-12T00:46:47.866Z,74057
2015-12-12T00:47:00.226Z,74063
2015-12-12T00:47:12.601Z,74055
2015-12-12T00:47:24.976Z,74055
2015-12-12T00:47:37.366Z,74051
2015-12-12T00:47:49.744Z,74046
2015-12-12T00:48:02.119Z,74043
2015-12-12T00:48:14.510Z,74043
2015-12-12T00:48:26.901Z,74044
2015-12-12T00:48:39.276Z,74048
2015-12-12T00:48:51.685Z,74048
2015-12-12T00:49:04.107Z,74049
2015-12-12T00:49:16.497Z,74055
2015-12-12T00:49:28.872Z,74055
2015-12-12T00:49:41.232Z,74053
2015-12-12T00:49:53.593Z,74049
2015-12-12T00:50:05.952Z,74053
2015-12-12T00:50:18.312Z,74054
2015-12-12T00:50:30.671Z,74047
2015-12-12T00:50:43.015Z,74053
2015-12-12T00:50:55.377Z,74053
2015-12-12T00:51:07.737Z,74054
2015-12-12T00:51:20.096Z,74049
2015-12-12T00:51:32.471Z,74055
2015-12-12T00:51:44.830Z,74050
2015-12-12T00:51:57.176Z,74053
2015-12-12T00:52:09.567Z,74050
2015-12-12T00:52:21.942Z,74048
2015-12-12T00:52:34.317Z,74049
2015-12-12T00:52:46.692Z,74050
2015-12-12T00:52:59.070Z,74053
2015-12-12T00:53:11.460Z,74062
2015-12-12T00:53:23.835Z,74058
2015-12-12T00:53:36.226Z,74058
2015-12-12T00:53:48.617Z,74061
2015-12-12T00:54:01.027Z,74060
2015-12-12T00:54:13.418Z,74057
2015-12-12T00:54:25.808Z,74047
2015-12-12T00:54:38.168Z,74058
2015-12-12T00:54:50.511Z,74055
2015-12-12T00:55:02.874Z,74050
2015-12-12T00:55:15.233Z,74059
2015-12-12T00:55:27.577Z,74060
2015-12-12T00:55:39.952Z,74055
2015-12-12T00:55:52.311Z,74048
2015-12-12T00:56:04.673Z,74053
2015-12-12T00:56:17.032Z,74049
2015-12-12T00:56:29.391Z,74046
2015-12-12T00:56:41.735Z,74035
2015-12-12T00:56:54.094Z,74039
2015-12-12T00:57:06.457Z,74039
2015-12-12T00:57:18.816Z,74048
2015-12-12T00:57:31.176Z,74046
2015-12-12T00:57:43.551Z,74051
2015-12-12T00:57:55.926Z,74052
2015-12-12T00:58:08.304Z,74040
2015-12-12T00:58:20.679Z,74035
2015-12-12T00:58:33.069Z,74047
2015-12-12T00:58:45.460Z,74047
2015-12-12T00:58:57.850Z,74041
2015-12-12T00:59:10.243Z,74041
2015-12-12T00:59:22.649Z,74048
2015-12-12T00:59:34.321Z,74040
2015-12-12T00:59:46.712Z,74044
2015-12-12T00:59:59.071Z,74043
2015-12-12T01:00:11.277Z,74042
2015-12-12T01:00:23.621Z,74048
2015-12-12T01:00:35.842Z,74047
2015-12-12T01:00:48.154Z,74049
2015-12-12T01:01:00.529Z,74045
2015-12-12T01:01:12.876Z,74041
2015-12-12T01:01:25.282Z,74043
2015-12-12T01:01:37.657Z,74041
2015-12-12T01:01:50.048Z,74043
2015-12-12T01:02:02.392Z,74040
2015-12-12T01:02:14.754Z,74039
2015-12-12T01:02:27.113Z,74034
2015-12-12T01:02:39.488Z,74042
2015-12-12T01:02:51.848Z,74051
2015-12-12T01:03:04.223Z,74053
2015-12-12T01:03:16.584Z,74047
2015-12-12T01:03:28.959Z,74048
2015-12-12T01:03:41.350Z,74060
2015-12-12T01:03:53.725Z,74057
2015-12-12T01:04:06.147Z,74053
2015-12-12T01:04:18.540Z,74054
2015-12-12T01:04:30.884Z,74059
2015-12-12T01:04:43.243Z,74050
2015-12-12T01:04:55.587Z,74062
2015-12-12T01:05:07.962Z,74054
2015-12-12T01:05:20.340Z,74051
2015-12-12T01:05:32.715Z,74050
2015-12-12T01:05:45.075Z,74047
2015-12-12T01:05:57.434Z,74044
2015-12-12T01:06:09.793Z,74044
2015-12-12T01:06:22.155Z,74045
2015-12-12T01:06:34.514Z,74049
2015-12-12T01:06:46.873Z,74050
2015-12-12T01:06:59.233Z,74042
2015-12-12T01:07:11.608Z,74048
2015-12-12T01:07:23.986Z,74041
2015-12-12T01:07:36.345Z,74037
2015-12-12T01:07:48.720Z,74042
2015-12-12T01:08:00.392Z,74045
2015-12-12T01:08:12.783Z,74045
2015-12-12T01:08:25.176Z,74050
2015-12-12T01:08:37.551Z,74050
2015-12-12T01:08:49.223Z,74054
2015-12-12T01:09:01.629Z,74047
2015-12-12T01:09:14.051Z,74042
2015-12-12T01:09:26.429Z,74040
2015-12-12T01:09:38.789Z,74038
2015-12-12T01:09:51.148Z,74043
2015-12-12T01:10:03.507Z,74045
2015-12-12T01:10:15.867Z,74043
2015-12-12T01:10:28.228Z,74052
2015-12-12T01:10:40.603Z,74054
2015-12-12T01:10:52.963Z,74045
2015-12-12T01:11:05.322Z,74047
2015-12-12T01:11:17.666Z,74047
2015-12-12T01:11:30.044Z,74044
2015-12-12T01:11:42.403Z,74046
2015-12-12T01:11:54.762Z,74047
2015-12-12T01:12:07.106Z,74047
2015-12-12T01:12:19.466Z,74043
2015-12-12T01:12:31.844Z,74039
2015-12-12T01:12:44.234Z,74044
2015-12-12T01:12:56.609Z,74039
2015-12-12T01:13:08.984Z,74047
2015-12-12T01:13:21.375Z,74046
2015-12-12T01:13:33.768Z,74045
2015-12-12T01:13:46.206Z,74057
2015-12-12T01:13:58.597Z,74048
2015-12-12T01:14:11.003Z,74047
2015-12-12T01:14:23.393Z,74051
2015-12-12T01:14:35.756Z,74051
2015-12-12T01:14:48.115Z,74044
2015-12-12T01:15:00.475Z,74045
2015-12-12T01:15:12.834Z,74041
2015-12-12T01:15:25.193Z,74034
2015-12-12T01:15:37.555Z,74031
2015-12-12T01:15:49.961Z,74037
2015-12-12T01:16:02.320Z,74034
2015-12-12T01:16:14.680Z,74039
2015-12-12T01:16:27.039Z,74040
2015-12-12T01:16:39.385Z,74042
2015-12-12T01:16:51.791Z,74045
2015-12-12T01:17:04.150Z,74046
2015-12-12T01:17:16.525Z,74050
2015-12-12T01:17:28.903Z,74047
2015-12-12T01:17:41.278Z,74046
2015-12-12T01:17:53.653Z,74049
2015-12-12T01:18:06.044Z,74044
2015-12-12T01:18:18.435Z,74047
2015-12-12T01:18:30.844Z,74041
2015-12-12T01:18:43.235Z,74039
2015-12-12T01:18:55.625Z,74034
2015-12-12T01:19:07.875Z,74035
2015-12-12T01:19:20.266Z,74041
2015-12-12T01:19:32.675Z,74042
2015-12-12T01:19:45.034Z,74042
2015-12-12T01:19:57.394Z,74039
2015-12-12T01:20:09.753Z,74039
2015-12-12T01:20:22.113Z,74040
2015-12-12T01:20:34.475Z,74032
2015-12-12T01:20:46.850Z,74037
2015-12-12T01:20:59.209Z,74043
2015-12-12T01:21:11.553Z,74045
2015-12-12T01:21:23.912Z,74043
2015-12-12T01:21:36.306Z,74044
2015-12-12T01:21:48.650Z,74043
2015-12-12T01:22:01.009Z,74047
2015-12-12T01:22:42.886Z,74049
2015-12-12T01:22:55.261Z,74050
2015-12-12T01:23:07.480Z,74058
2015-12-12T01:23:19.855Z,74054
2015-12-12T01:23:32.261Z,74050
2015-12-12T01:23:44.655Z,74040
2015-12-12T01:23:57.045Z,74047
2015-12-12T01:24:09.436Z,74047
2015-12-12T01:24:21.842Z,74049
2015-12-12T01:24:34.202Z,74041
2015-12-12T01:24:46.564Z,74050
2015-12-12T01:24:58.923Z,74047
2015-12-12T01:25:11.267Z,74049
2015-12-12T01:25:23.642Z,74049
2015-12-12T01:25:36.002Z,74046
2015-12-12T01:25:48.364Z,74045
2015-12-12T01:26:00.723Z,74037
2015-12-12T01:26:13.083Z,74045
2015-12-12T01:26:25.442Z,74047
2015-12-12T01:26:37.801Z,74046
2015-12-12T01:26:50.195Z,74044
2015-12-12T01:27:02.539Z,74040
2015-12-12T01:27:14.898Z,74044
2015-12-12T01:27:27.258Z,74036
2015-12-12T01:27:39.617Z,74040
2015-12-12T01:27:51.978Z,74041
2015-12-12T01:28:04.385Z,74052
2015-12-12T01:28:16.829Z,74046
2015-12-12T01:28:29.704Z,74045
2015-12-12T01:28:42.636Z,74058
2015-12-12T01:28:55.029Z,74048
2015-12-12T01:29:07.248Z,74044
2015-12-12T01:29:20.514Z,74044
2015-12-12T01:29:32.998Z,74041
2015-12-12T01:29:44.732Z,74036
2015-12-12T01:29:56.953Z,74037
2015-12-12T01:30:09.187Z,74047
2015-12-12T01:30:21.704Z,74045
2015-12-12T01:30:34.392Z,74047
2015-12-12T01:30:46.958Z,74046
2015-12-12T01:30:59.945Z,74050
2015-12-12T01:31:13.930Z,74050
2015-12-12T01:31:28.445Z,74049
2015-12-12T01:31:41.586Z,74042
2015-12-12T01:31:54.526Z,74041
2015-12-12T01:32:07.433Z,74044
2015-12-12T01:32:19.933Z,74046
2015-12-12T01:32:32.620Z,74046
2015-12-12T01:32:45.026Z,74051
2015-12-12T01:32:57.436Z,74048
2015-12-12T01:33:09.873Z,74049
2015-12-12T01:33:22.686Z,74053
2015-12-12T01:33:35.045Z,74040
2015-12-12T01:33:47.436Z,74047
2015-12-12T01:33:59.079Z,74043
2015-12-12T01:34:11.439Z,74038
2015-12-12T01:34:23.798Z,74046
2015-12-12T01:34:36.157Z,74042
2015-12-12T01:34:47.657Z,74043
2015-12-12T01:35:00.067Z,74048
2015-12-12T01:35:12.551Z,74045
2015-12-12T01:35:24.254Z,74044
2015-12-12T01:35:35.942Z,74042
2015-12-12T01:35:48.301Z,74049
2015-12-12T01:36:00.897Z,74054
2015-12-12T01:36:13.178Z,74049
2015-12-12T01:36:25.616Z,74054
2015-12-12T01:36:38.022Z,74055
2015-12-12T01:36:50.225Z,74046
2015-12-12T01:37:02.665Z,74047
2015-12-12T01:37:15.072Z,74044
2015-12-12T01:37:26.759Z,74048
2015-12-12T01:37:39.150Z,74051
2015-12-12T01:37:52.072Z,74050
2015-12-12T01:38:04.528Z,74048
2015-12-12T01:38:16.981Z,74046
2015-12-12T01:38:29.325Z,74044
2015-12-12T01:38:41.684Z,74047
2015-12-12T01:38:54.059Z,74041
2015-12-12T01:39:06.421Z,74044
2015-12-12T01:39:18.781Z,74043
2015-12-12T01:39:31.140Z,74033
2015-12-12T01:39:43.500Z,74042
2015-12-12T01:39:55.859Z,74044
2015-12-12T01:40:08.205Z,74046
2015-12-12T01:40:20.595Z,74051
2015-12-12T01:40:32.252Z,74042
2015-12-12T01:40:44.627Z,74040
2015-12-12T01:40:56.986Z,74043
2015-12-12T01:41:09.364Z,74047
2015-12-12T01:41:21.739Z,74048
2015-12-12T01:41:34.114Z,74047
2015-12-12T01:41:46.489Z,74042
2015-12-12T01:41:58.864Z,74042
2015-12-12T01:42:11.273Z,74039
2015-12-12T01:42:23.648Z,74037
2015-12-12T01:42:36.039Z,74039
2015-12-12T01:42:48.445Z,74041
2015-12-12T01:43:00.851Z,74047
2015-12-12T01:43:13.214Z,74047
2015-12-12T01:43:25.573Z,74041
2015-12-12T01:43:37.761Z,74054
2015-12-12T01:43:50.120Z,74052
2015-12-12T01:44:02.479Z,74061
2015-12-12T01:44:14.856Z,74054
2015-12-12T01:44:27.231Z,74054
2015-12-12T01:44:39.591Z,74053
2015-12-12T01:44:51.950Z,74053
2015-12-12T01:45:04.309Z,74047
2015-12-12T01:45:16.672Z,74062
2015-12-12T01:45:29.031Z,74061
2015-12-12T01:45:41.391Z,74055
2015-12-12T01:45:53.750Z,74044
2015-12-12T01:46:06.141Z,74055
2015-12-12T01:46:18.519Z,74061
2015-12-12T01:46:30.894Z,74054
2015-12-12T01:46:43.269Z,74041
2015-12-12T01:46:55.659Z,74030
2015-12-12T01:47:08.065Z,74031
2015-12-12T01:47:20.458Z,74031
2015-12-12T01:47:32.849Z,74039
2015-12-12T01:47:45.255Z,74036
2015-12-12T01:47:57.646Z,74029
2015-12-12T01:48:10.036Z,74033
2015-12-12T01:48:22.414Z,74036
2015-12-12T01:48:34.774Z,74031
2015-12-12T01:48:47.117Z,74036
2015-12-12T01:48:59.477Z,74032
2015-12-12T01:49:11.836Z,74032
2015-12-12T01:49:24.199Z,74032
2015-12-12T01:49:36.574Z,74037
2015-12-12T01:49:48.934Z,74035
2015-12-12T01:50:01.309Z,74037
2015-12-12T01:50:13.668Z,74030
2015-12-12T01:50:26.014Z,74029
2015-12-12T01:50:38.373Z,74035
2015-12-12T01:50:50.733Z,74036
2015-12-12T01:51:03.108Z,74037
2015-12-12T01:51:15.311Z,74036
2015-12-12T01:51:27.689Z,74043
2015-12-12T01:51:40.048Z,74040
2015-12-12T01:51:52.439Z,74042
2015-12-12T01:52:04.829Z,74047
2015-12-12T01:52:17.220Z,74051
2015-12-12T01:52:29.628Z,74046
2015-12-12T01:52:42.019Z,74043
2015-12-12T01:52:54.425Z,74027
2015-12-12T01:53:06.800Z,74030
2015-12-12T01:53:19.191Z,74040
2015-12-12T01:53:31.538Z,74034
2015-12-12T01:53:43.897Z,74041
2015-12-12T01:53:56.256Z,74044
2015-12-12T01:54:08.631Z,74046
2015-12-12T01:54:20.991Z,74036
2015-12-12T01:54:33.619Z,74034
2015-12-12T01:54:45.978Z,74037
2015-12-12T01:54:58.337Z,74035
2015-12-12T01:55:10.712Z,74038
2015-12-12T01:55:23.072Z,74041
2015-12-12T01:55:35.419Z,74039
2015-12-12T01:55:47.778Z,74036
2015-12-12T01:56:00.137Z,74038
2015-12-12T01:56:12.512Z,74036
2015-12-12T01:56:24.874Z,74030
2015-12-12T01:56:37.264Z,74031
2015-12-12T01:56:49.639Z,74036
2015-12-12T01:57:02.030Z,74041
2015-12-12T01:57:14.405Z,74039
2015-12-12T01:57:26.814Z,74036
2015-12-12T01:57:39.205Z,74042
2015-12-12T01:57:51.564Z,74036
2015-12-12T01:58:03.924Z,74044
2015-12-12T01:58:16.267Z,74042
2015-12-12T01:58:28.630Z,74040
2015-12-12T01:58:40.989Z,74034
2015-12-12T01:58:53.364Z,74032
2015-12-12T01:59:05.723Z,74038
2015-12-12T01:59:18.083Z,74037
2015-12-12T01:59:30.444Z,74042
2015-12-12T01:59:42.804Z,74038
2015-12-12T01:59:55.147Z,74035
2015-12-12T02:00:07.507Z,74033
2015-12-12T02:00:19.866Z,74035
2015-12-12T02:00:32.244Z,74038
2015-12-12T02:00:44.619Z,74038
2015-12-12T02:00:56.994Z,74044
2015-12-12T02:01:09.369Z,74041
2015-12-12T02:01:21.728Z,74042
2015-12-12T02:01:34.122Z,74047
2015-12-12T02:01:46.497Z,74046
2015-12-12T02:01:58.856Z,74051
2015-12-12T02:02:10.513Z,74046
2015-12-12T02:02:22.856Z,74047
2015-12-12T02:02:35.218Z,74043
2015-12-12T02:02:47.577Z,74043
2015-12-12T02:02:59.968Z,74041
2015-12-12T02:03:12.343Z,74046
2015-12-12T02:03:24.702Z,74040
2015-12-12T02:03:37.066Z,74046
2015-12-12T02:03:49.425Z,74049
2015-12-12T02:04:01.784Z,74049
2015-12-12T02:04:14.144Z,74043
2015-12-12T02:04:26.487Z,74039
2015-12-12T02:04:38.708Z,74040
2015-12-12T02:04:51.083Z,74036
2015-12-12T02:05:03.458Z,74034
2015-12-12T02:05:15.818Z,74029
2015-12-12T02:05:28.193Z,74028
2015-12-12T02:05:40.586Z,74029
2015-12-12T02:05:52.961Z,74030
2015-12-12T02:06:05.352Z,74032
2015-12-12T02:06:17.711Z,74037
2015-12-12T02:06:30.086Z,74028
2015-12-12T02:06:42.464Z,74033
2015-12-12T02:06:54.839Z,74036
2015-12-12T02:07:07.230Z,74037
2015-12-12T02:07:19.589Z,74036
2015-12-12T02:07:31.949Z,74034
2015-12-12T02:07:44.327Z,74026
2015-12-12T02:07:56.670Z,74029
2015-12-12T02:08:09.030Z,74027
2015-12-12T02:08:21.405Z,74029
2015-12-12T02:08:33.748Z,74034
2015-12-12T02:08:46.110Z,74032
2015-12-12T02:08:58.469Z,74041
2015-12-12T02:09:10.829Z,74035
2015-12-12T02:09:23.188Z,74037
2015-12-12T02:09:35.532Z,74046
2015-12-12T02:09:47.894Z,74045
2015-12-12T02:10:00.269Z,74036
2015-12-12T02:10:12.628Z,74036
2015-12-12T02:10:25.003Z,74036
2015-12-12T02:10:37.378Z,74033
2015-12-12T02:10:49.771Z,74038
2015-12-12T02:11:02.162Z,74038
2015-12-12T02:11:14.552Z,74039
2015-12-12T02:11:26.943Z,74041
2015-12-12T02:11:39.349Z,74042
2015-12-12T02:11:51.743Z,74041
2015-12-12T02:12:04.743Z,74046
2015-12-12T02:12:17.118Z,74041
2015-12-12T02:12:29.493Z,74042
2015-12-12T02:12:41.852Z,74045
2015-12-12T02:12:54.215Z,74041
2015-12-12T02:13:06.574Z,74037
2015-12-12T02:13:18.933Z,74033
2015-12-12T02:13:31.293Z,74032
2015-12-12T02:13:43.652Z,74024
2015-12-12T02:13:56.014Z,74003
2015-12-12T02:14:08.374Z,74010
2015-12-12T02:14:20.733Z,74021
2015-12-12T02:14:33.093Z,74031
2015-12-12T02:14:45.139Z,74033
2015-12-12T02:14:57.502Z,74033
2015-12-12T02:15:09.877Z,74032
2015-12-12T02:15:22.236Z,74042
2015-12-12T02:15:34.611Z,74046
2015-12-12T02:15:46.971Z,74042
2015-12-12T02:15:59.348Z,74045
2015-12-12T02:16:11.738Z,74039
2015-12-12T02:16:24.144Z,74038
2015-12-12T02:16:36.551Z,74033
2015-12-12T02:16:48.973Z,74038
2015-12-12T02:17:01.352Z,74033
2015-12-12T02:17:13.742Z,74030
2015-12-12T02:17:26.117Z,74034
2015-12-12T02:17:38.477Z,74028
2015-12-12T02:17:50.836Z,74025
2015-12-12T02:18:02.479Z,74024
2015-12-12T02:18:14.838Z,74028
2015-12-12T02:18:27.197Z,74038
2015-12-12T02:18:39.557Z,74036
2015-12-12T02:18:51.916Z,74039
2015-12-12T02:19:04.325Z,74031
2015-12-12T02:19:16.685Z,74020
2015-12-12T02:19:29.044Z,74018
2015-12-12T02:19:41.263Z,74013
2015-12-12T02:19:53.638Z,74022
2015-12-12T02:20:05.984Z,74023
2015-12-12T02:20:18.359Z,74023
2015-12-12T02:20:30.734Z,74021
2015-12-12T02:20:42.405Z,74019
2015-12-12T02:20:54.780Z,74014
2015-12-12T02:21:07.158Z,74006
2015-12-12T02:21:19.549Z,74016
2015-12-12T02:21:31.940Z,74022
2015-12-12T02:21:43.627Z,74018
2015-12-12T02:21:56.018Z,74022
2015-12-12T02:22:08.411Z,74023
2015-12-12T02:22:20.802Z,74025
2015-12-12T02:22:33.208Z,74023
2015-12-12T02:22:45.568Z,74028
2015-12-12T02:22:57.927Z,74029
2015-12-12T02:23:10.289Z,74023
2015-12-12T02:23:22.649Z,74019
2015-12-12T02:23:35.008Z,74019
2015-12-12T02:23:47.368Z,74024
2015-12-12T02:23:59.743Z,74024
2015-12-12T02:24:11.386Z,74027
2015-12-12T02:24:23.761Z,74024
2015-12-12T02:24:36.121Z,74030
2015-12-12T02:24:48.480Z,74030
2015-12-12T02:25:00.839Z,74029
2015-12-12T02:25:13.201Z,74022
2015-12-12T02:25:25.560Z,74017
2015-12-12T02:25:37.951Z,74020
2015-12-12T02:25:49.607Z,74014
2015-12-12T02:26:01.966Z,74013
2015-12-12T02:26:14.360Z,74020
2015-12-12T02:26:26.735Z,74020
2015-12-12T02:26:39.141Z,74017
2015-12-12T02:26:51.532Z,74008
2015-12-12T02:27:03.938Z,74008
2015-12-12T02:27:16.175Z,74011
2015-12-12T02:27:28.566Z,74003
2015-12-12T02:27:40.957Z,74004
2015-12-12T02:27:53.316Z,74013
2015-12-12T02:28:05.660Z,74024
2015-12-12T02:28:18.038Z,74030
2015-12-12T02:28:30.397Z,74032
2015-12-12T02:28:42.600Z,74030
2015-12-12T02:28:54.960Z,74027
2015-12-12T02:29:07.319Z,74029
2015-12-12T02:29:19.665Z,74026
2015-12-12T02:29:32.024Z,74023
2015-12-12T02:29:44.384Z,74023
2015-12-12T02:29:56.743Z,74027
2015-12-12T02:30:08.384Z,74023
2015-12-12T02:30:20.746Z,74025
2015-12-12T02:30:33.121Z,74021
2015-12-12T02:30:45.496Z,74026
2015-12-12T02:30:57.871Z,74024
2015-12-12T02:31:10.246Z,74027
2015-12-12T02:31:22.624Z,74026
2015-12-12T02:31:35.015Z,74020
2015-12-12T02:31:47.421Z,74025
2015-12-12T02:31:59.811Z,74027
2015-12-12T02:32:12.202Z,74025
2015-12-12T02:32:24.596Z,74025
2015-12-12T02:32:36.971Z,74032
2015-12-12T02:32:49.330Z,74029
2015-12-12T02:33:00.986Z,74026
2015-12-12T02:33:13.346Z,74025
2015-12-12T02:33:25.692Z,74018
2015-12-12T02:33:38.052Z,74032
2015-12-12T02:33:50.427Z,74031
2015-12-12T02:34:02.786Z,74031
2015-12-12T02:34:15.161Z,74034
2015-12-12T02:34:27.523Z,74026
2015-12-12T02:34:39.898Z,74027
2015-12-12T02:34:52.257Z,74029
2015-12-12T02:35:04.601Z,74028
2015-12-12T02:35:16.976Z,74029
2015-12-12T02:35:29.182Z,74025
2015-12-12T02:35:41.557Z,74028
2015-12-12T02:35:53.916Z,74024
2015-12-12T02:36:06.291Z,74023
2015-12-12T02:36:18.682Z,74030
2015-12-12T02:36:31.074Z,74026
2015-12-12T02:36:43.465Z,74023
2015-12-12T02:36:55.715Z,74013
2015-12-12T02:37:08.106Z,74010
2015-12-12T02:37:20.496Z,74009
2015-12-12T02:37:32.906Z,74013
2015-12-12T02:37:45.281Z,74025
2015-12-12T02:37:57.640Z,74027
2015-12-12T02:38:09.984Z,74019
2015-12-12T02:38:22.343Z,74020
2015-12-12T02:38:34.721Z,74019
2015-12-12T02:38:47.080Z,74018
2015-12-12T02:38:59.440Z,74022
2015-12-12T02:39:11.815Z,74026
2015-12-12T02:39:24.162Z,74023
2015-12-12T02:39:36.521Z,74025